sensor_id;sensor_type;location;lat;lon;timestamp;temperature;humidity
74520;DHT22;63002;48.134;-1.948;2023-06-26T05:01:00;25.30;51.70
74520;DHT22;63002;48.134;-1.948;2023-06-26T05:03:25;25.30;51.70
74520;DHT22;63002;48.134;-1.948;2023-06-26T05:05:51;25.20;51.70
74520;DHT22;63002;48.134;-1.948;2023-06-26T05:08:23;25.20;51.70
74520;DHT22;63002;48.134;-1.948;2023-06-26T05:10:49;25.20;51.80
74520;DHT22;63002;48.134;-1.948;2023-06-26T05:13:15;25.20;51.80
74520;DHT22;63002;48.134;-1.948;2023-06-26T05:15:43;25.20;51.80
74520;DHT22;63002;48.134;-1.948;2023-06-26T05:18:09;24.90;50.70
74520;DHT22;63002;48.134;-1.948;2023-06-26T05:20:36;24.70;51.40
74520;DHT22;63002;48.134;-1.948;2023-06-26T05:23:03;24.80;51.70
74520;DHT22;63002;48.134;-1.948;2023-06-26T05:25:30;24.90;51.60
74520;DHT22;63002;48.134;-1.948;2023-06-26T05:27:57;24.80;51.60
74520;DHT22;63002;48.134;-1.948;2023-06-26T05:30:24;24.90;51.60
74520;DHT22;63002;48.134;-1.948;2023-06-26T05:32:56;24.90;51.50
74520;DHT22;63002;48.134;-1.948;2023-06-26T05:35:25;24.90;51.50
74520;DHT22;63002;48.134;-1.948;2023-06-26T05:37:54;24.90;51.40
74520;DHT22;63002;48.134;-1.948;2023-06-26T05:40:21;24.90;51.30
74520;DHT22;63002;48.134;-1.948;2023-06-26T05:42:47;24.90;50.70
74520;DHT22;63002;48.134;-1.948;2023-06-26T05:45:13;24.40;49.40
74520;DHT22;63002;48.134;-1.948;2023-06-26T05:47:38;23.70;50.50
74520;DHT22;63002;48.134;-1.948;2023-06-26T05:50:05;23.30;51.20
74520;DHT22;63002;48.134;-1.948;2023-06-26T05:52:31;23.00;52.00
74520;DHT22;63002;48.134;-1.948;2023-06-26T05:54:57;22.90;52.50
74520;DHT22;63002;48.134;-1.948;2023-06-26T05:57:29;23.20;52.80
74520;DHT22;63002;48.134;-1.948;2023-06-26T05:59:56;23.60;52.40
74520;DHT22;63002;48.134;-1.948;2023-06-26T06:02:21;23.70;50.80
74520;DHT22;63002;48.134;-1.948;2023-06-26T06:04:47;23.10;51.50
74520;DHT22;63002;48.134;-1.948;2023-06-26T06:07:13;22.70;52.40
74520;DHT22;63002;48.134;-1.948;2023-06-26T06:09:39;22.50;53.00
74520;DHT22;63002;48.134;-1.948;2023-06-26T06:12:06;22.40;53.30
74520;DHT22;63002;48.134;-1.948;2023-06-26T06:14:32;22.20;53.50
74520;DHT22;63002;48.134;-1.948;2023-06-26T06:16:58;22.20;53.80
74520;DHT22;63002;48.134;-1.948;2023-06-26T06:19:24;22.20;53.50
74520;DHT22;63002;48.134;-1.948;2023-06-26T06:21:49;22.00;53.80
74520;DHT22;63002;48.134;-1.948;2023-06-26T06:24:15;21.80;54.40
74520;DHT22;63002;48.134;-1.948;2023-06-26T06:26:41;21.90;54.40
74520;DHT22;63002;48.134;-1.948;2023-06-26T06:29:07;22.10;54.30
74520;DHT22;63002;48.134;-1.948;2023-06-26T06:31:32;22.30;53.70
74520;DHT22;63002;48.134;-1.948;2023-06-26T06:33:58;22.60;53.30
74520;DHT22;63002;48.134;-1.948;2023-06-26T06:36:24;22.70;52.90
74520;DHT22;63002;48.134;-1.948;2023-06-26T06:38:49;22.90;52.60
74520;DHT22;63002;48.134;-1.948;2023-06-26T06:41:15;23.00;52.40
74520;DHT22;63002;48.134;-1.948;2023-06-26T06:43:41;23.10;52.30
74520;DHT22;63002;48.134;-1.948;2023-06-26T06:46:08;23.20;52.20
74520;DHT22;63002;48.134;-1.948;2023-06-26T06:48:34;23.20;52.10
74520;DHT22;63002;48.134;-1.948;2023-06-26T06:50:59;23.30;52.10
74520;DHT22;63002;48.134;-1.948;2023-06-26T06:53:25;23.40;51.90
74520;DHT22;63002;48.134;-1.948;2023-06-26T06:55:51;23.40;51.90
74520;DHT22;63002;48.134;-1.948;2023-06-26T06:58:17;23.40;51.80
74520;DHT22;63002;48.134;-1.948;2023-06-26T07:00:44;23.50;51.80
74520;DHT22;63002;48.134;-1.948;2023-06-26T07:03:10;23.50;51.80
74520;DHT22;63002;48.134;-1.948;2023-06-26T07:05:37;23.50;51.80
74520;DHT22;63002;48.134;-1.948;2023-06-26T07:08:03;23.60;51.70
74520;DHT22;63002;48.134;-1.948;2023-06-26T07:10:29;23.60;51.70
74520;DHT22;63002;48.134;-1.948;2023-06-26T07:12:55;23.60;51.70
74520;DHT22;63002;48.134;-1.948;2023-06-26T07:15:20;23.70;51.60
74520;DHT22;63002;48.134;-1.948;2023-06-26T07:17:46;23.70;51.60
74520;DHT22;63002;48.134;-1.948;2023-06-26T07:20:12;23.70;51.60
74520;DHT22;63002;48.134;-1.948;2023-06-26T07:22:41;23.70;51.60
74520;DHT22;63002;48.134;-1.948;2023-06-26T07:25:07;23.80;51.60
74520;DHT22;63002;48.134;-1.948;2023-06-26T07:27:37;23.80;51.60
74520;DHT22;63002;48.134;-1.948;2023-06-26T07:30:03;23.80;51.60
74520;DHT22;63002;48.134;-1.948;2023-06-26T07:32:29;23.80;51.60
74520;DHT22;63002;48.134;-1.948;2023-06-26T07:34:55;23.80;51.60
74520;DHT22;63002;48.134;-1.948;2023-06-26T07:37:21;23.90;51.50
74520;DHT22;63002;48.134;-1.948;2023-06-26T07:39:48;23.90;51.50
74520;DHT22;63002;48.134;-1.948;2023-06-26T07:42:14;23.90;51.50
74520;DHT22;63002;48.134;-1.948;2023-06-26T07:44:42;23.90;51.50
74520;DHT22;63002;48.134;-1.948;2023-06-26T07:47:08;23.90;51.40
74520;DHT22;63002;48.134;-1.948;2023-06-26T07:49:33;24.00;51.40
74520;DHT22;63002;48.134;-1.948;2023-06-26T07:51:59;24.00;51.30
74520;DHT22;63002;48.134;-1.948;2023-06-26T07:54:25;24.00;51.40
74520;DHT22;63002;48.134;-1.948;2023-06-26T07:57:00;24.00;51.40
74520;DHT22;63002;48.134;-1.948;2023-06-26T07:59:28;24.10;51.30
74520;DHT22;63002;48.134;-1.948;2023-06-26T08:01:55;24.10;51.30
74520;DHT22;63002;48.134;-1.948;2023-06-26T08:04:24;24.10;51.30
74520;DHT22;63002;48.134;-1.948;2023-06-26T08:06:55;24.10;51.30
74520;DHT22;63002;48.134;-1.948;2023-06-26T08:09:23;24.10;51.30
74520;DHT22;63002;48.134;-1.948;2023-06-26T08:11:49;24.10;51.30
74520;DHT22;63002;48.134;-1.948;2023-06-26T08:14:15;24.10;51.30
74520;DHT22;63002;48.134;-1.948;2023-06-26T08:16:42;24.10;51.20
74520;DHT22;63002;48.134;-1.948;2023-06-26T08:19:10;24.10;51.30
74520;DHT22;63002;48.134;-1.948;2023-06-26T08:21:36;24.10;51.30
74520;DHT22;63002;48.134;-1.948;2023-06-26T08:24:02;24.20;51.20
74520;DHT22;63002;48.134;-1.948;2023-06-26T08:26:28;24.20;51.30
74520;DHT22;63002;48.134;-1.948;2023-06-26T08:28:54;24.20;51.20
74520;DHT22;63002;48.134;-1.948;2023-06-26T08:31:20;24.20;51.20
74520;DHT22;63002;48.134;-1.948;2023-06-26T08:33:46;24.20;51.20
74520;DHT22;63002;48.134;-1.948;2023-06-26T08:36:12;24.20;51.20
74520;DHT22;63002;48.134;-1.948;2023-06-26T08:38:38;24.30;51.10
74520;DHT22;63002;48.134;-1.948;2023-06-26T08:41:06;24.20;51.20
74520;DHT22;63002;48.134;-1.948;2023-06-26T08:43:32;24.30;51.20
74520;DHT22;63002;48.134;-1.948;2023-06-26T08:45:59;24.30;51.20
74520;DHT22;63002;48.134;-1.948;2023-06-26T08:48:25;24.30;51.10
74520;DHT22;63002;48.134;-1.948;2023-06-26T08:50:53;24.30;51.20
74520;DHT22;63002;48.134;-1.948;2023-06-26T08:53:39;24.30;51.10
74520;DHT22;63002;48.134;-1.948;2023-06-26T08:56:07;24.30;51.10
74520;DHT22;63002;48.134;-1.948;2023-06-26T08:58:34;24.30;51.20
74520;DHT22;63002;48.134;-1.948;2023-06-26T09:01:02;24.30;51.20
74520;DHT22;63002;48.134;-1.948;2023-06-26T09:03:30;24.30;51.20
74520;DHT22;63002;48.134;-1.948;2023-06-26T09:05:56;24.30;51.30
74520;DHT22;63002;48.134;-1.948;2023-06-26T09:08:21;24.30;51.20
74520;DHT22;63002;48.134;-1.948;2023-06-26T09:10:47;24.30;51.20
74520;DHT22;63002;48.134;-1.948;2023-06-26T09:13:13;24.30;51.30
74520;DHT22;63002;48.134;-1.948;2023-06-26T09:15:42;24.30;51.30
74520;DHT22;63002;48.134;-1.948;2023-06-26T09:18:08;24.30;51.30
74520;DHT22;63002;48.134;-1.948;2023-06-26T09:20:34;24.30;51.20
74520;DHT22;63002;48.134;-1.948;2023-06-26T09:23:00;24.30;51.20
74520;DHT22;63002;48.134;-1.948;2023-06-26T09:25:28;24.30;51.30
74520;DHT22;63002;48.134;-1.948;2023-06-26T09:27:54;24.30;51.30
74520;DHT22;63002;48.134;-1.948;2023-06-26T09:30:22;24.30;51.30
74520;DHT22;63002;48.134;-1.948;2023-06-26T09:32:49;24.30;51.20
74520;DHT22;63002;48.134;-1.948;2023-06-26T09:35:20;24.40;51.20
74520;DHT22;63002;48.134;-1.948;2023-06-26T09:37:52;24.40;51.20
74520;DHT22;63002;48.134;-1.948;2023-06-26T09:40:18;24.40;51.10
74520;DHT22;63002;48.134;-1.948;2023-06-26T09:42:43;24.40;51.10
74520;DHT22;63002;48.134;-1.948;2023-06-26T09:45:18;24.40;51.10
74520;DHT22;63002;48.134;-1.948;2023-06-26T09:47:44;24.40;51.10
74520;DHT22;63002;48.134;-1.948;2023-06-26T09:50:21;24.40;51.00
74520;DHT22;63002;48.134;-1.948;2023-06-26T09:52:47;24.40;51.10
74520;DHT22;63002;48.134;-1.948;2023-06-26T09:55:13;24.40;51.10
74520;DHT22;63002;48.134;-1.948;2023-06-26T09:57:39;24.40;51.10
74520;DHT22;63002;48.134;-1.948;2023-06-26T10:00:06;24.40;51.10
74520;DHT22;63002;48.134;-1.948;2023-06-26T10:02:34;24.40;51.10
74520;DHT22;63002;48.134;-1.948;2023-06-26T10:04:59;24.40;51.10
74520;DHT22;63002;48.134;-1.948;2023-06-26T10:07:25;24.40;51.10
74520;DHT22;63002;48.134;-1.948;2023-06-26T10:09:52;24.40;51.10
74520;DHT22;63002;48.134;-1.948;2023-06-26T10:12:29;24.40;51.10
74520;DHT22;63002;48.134;-1.948;2023-06-26T10:14:58;24.40;51.10
74520;DHT22;63002;48.134;-1.948;2023-06-26T10:17:32;24.40;51.10
74520;DHT22;63002;48.134;-1.948;2023-06-26T10:20:02;24.40;51.20
74520;DHT22;63002;48.134;-1.948;2023-06-26T10:22:30;24.40;51.10
74520;DHT22;63002;48.134;-1.948;2023-06-26T10:24:59;24.40;51.20
74520;DHT22;63002;48.134;-1.948;2023-06-26T10:27:31;24.40;51.20
74520;DHT22;63002;48.134;-1.948;2023-06-26T10:30:03;24.40;51.20
74520;DHT22;63002;48.134;-1.948;2023-06-26T10:32:30;24.40;51.20
74520;DHT22;63002;48.134;-1.948;2023-06-26T10:34:57;24.50;51.10
74520;DHT22;63002;48.134;-1.948;2023-06-26T10:40:07;24.50;51.10
74520;DHT22;63002;48.134;-1.948;2023-06-26T10:42:38;24.50;51.10
74520;DHT22;63002;48.134;-1.948;2023-06-26T10:45:32;24.50;51.10
74520;DHT22;63002;48.134;-1.948;2023-06-26T10:47:58;24.50;51.20
74520;DHT22;63002;48.134;-1.948;2023-06-26T10:50:29;24.50;51.20
74520;DHT22;63002;48.134;-1.948;2023-06-26T10:53:15;24.50;51.10
74520;DHT22;63002;48.134;-1.948;2023-06-26T11:01:19;24.50;51.20
74520;DHT22;63002;48.134;-1.948;2023-06-26T11:06:28;24.50;51.20
74520;DHT22;63002;48.134;-1.948;2023-06-26T11:12:03;24.50;51.10
74520;DHT22;63002;48.134;-1.948;2023-06-26T11:14:31;24.50;51.10
74520;DHT22;63002;48.134;-1.948;2023-06-26T11:16:58;24.50;51.00
74520;DHT22;63002;48.134;-1.948;2023-06-26T11:19:26;24.50;51.10
74520;DHT22;63002;48.134;-1.948;2023-06-26T11:21:58;24.50;51.20
74520;DHT22;63002;48.134;-1.948;2023-06-26T11:24:25;24.50;51.10
74520;DHT22;63002;48.134;-1.948;2023-06-26T11:26:50;24.50;51.10
74520;DHT22;63002;48.134;-1.948;2023-06-26T11:29:17;24.50;51.00
74520;DHT22;63002;48.134;-1.948;2023-06-26T11:31:42;24.50;51.10
74520;DHT22;63002;48.134;-1.948;2023-06-26T11:34:08;24.50;51.10
74520;DHT22;63002;48.134;-1.948;2023-06-26T11:36:36;24.60;51.00
74520;DHT22;63002;48.134;-1.948;2023-06-26T11:39:04;24.60;51.00
74520;DHT22;63002;48.134;-1.948;2023-06-26T11:41:34;24.60;50.90
74520;DHT22;63002;48.134;-1.948;2023-06-26T11:44:05;24.60;50.80
74520;DHT22;63002;48.134;-1.948;2023-06-26T11:46:32;24.60;50.80
74520;DHT22;63002;48.134;-1.948;2023-06-26T11:48:58;24.60;50.80
74520;DHT22;63002;48.134;-1.948;2023-06-26T11:51:23;24.60;50.90
74520;DHT22;63002;48.134;-1.948;2023-06-26T11:53:52;24.60;50.80
74520;DHT22;63002;48.134;-1.948;2023-06-26T11:56:18;24.60;50.80
74520;DHT22;63002;48.134;-1.948;2023-06-26T11:59:07;24.60;50.80
74520;DHT22;63002;48.134;-1.948;2023-06-26T12:01:36;24.60;50.80
74520;DHT22;63002;48.134;-1.948;2023-06-26T12:04:12;24.60;50.80
74520;DHT22;63002;48.134;-1.948;2023-06-26T12:06:42;24.70;50.70
74520;DHT22;63002;48.134;-1.948;2023-06-26T12:09:09;24.70;50.80
74520;DHT22;63002;48.134;-1.948;2023-06-26T12:11:38;24.70;50.80
74520;DHT22;63002;48.134;-1.948;2023-06-26T12:14:06;24.70;50.70
74520;DHT22;63002;48.134;-1.948;2023-06-26T12:16:34;24.70;50.70
74520;DHT22;63002;48.134;-1.948;2023-06-26T12:19:04;24.70;50.60
74520;DHT22;63002;48.134;-1.948;2023-06-26T12:24:13;24.70;50.70
74520;DHT22;63002;48.134;-1.948;2023-06-26T12:26:45;24.70;50.80
74520;DHT22;63002;48.134;-1.948;2023-06-26T12:29:14;24.70;50.80
74520;DHT22;63002;48.134;-1.948;2023-06-26T12:31:42;24.70;50.60
74520;DHT22;63002;48.134;-1.948;2023-06-26T12:34:10;24.70;50.80
74520;DHT22;63002;48.134;-1.948;2023-06-26T12:36:48;24.70;50.80
74520;DHT22;63002;48.134;-1.948;2023-06-26T12:39:21;24.80;50.90
74520;DHT22;63002;48.134;-1.948;2023-06-26T12:41:53;24.80;50.80
74520;DHT22;63002;48.134;-1.948;2023-06-26T12:44:26;24.70;50.80
74520;DHT22;63002;48.134;-1.948;2023-06-26T12:47:00;24.70;50.80
74520;DHT22;63002;48.134;-1.948;2023-06-26T12:49:30;24.80;50.70
74520;DHT22;63002;48.134;-1.948;2023-06-26T12:51:57;24.80;50.70
74520;DHT22;63002;48.134;-1.948;2023-06-26T12:54:23;24.80;50.70
74520;DHT22;63002;48.134;-1.948;2023-06-26T12:56:49;24.80;50.80
74520;DHT22;63002;48.134;-1.948;2023-06-26T12:59:15;24.80;50.80
74520;DHT22;63002;48.134;-1.948;2023-06-26T13:01:40;24.80;50.70
74520;DHT22;63002;48.134;-1.948;2023-06-26T13:04:06;24.80;50.80
74520;DHT22;63002;48.134;-1.948;2023-06-26T13:06:33;24.80;50.70
74520;DHT22;63002;48.134;-1.948;2023-06-26T13:08:59;24.80;50.70
74520;DHT22;63002;48.134;-1.948;2023-06-26T13:11:25;24.80;50.80
74520;DHT22;63002;48.134;-1.948;2023-06-26T13:13:50;24.90;50.70
74520;DHT22;63002;48.134;-1.948;2023-06-26T13:16:16;24.90;50.70
74520;DHT22;63002;48.134;-1.948;2023-06-26T13:18:43;24.90;50.80
74520;DHT22;63002;48.134;-1.948;2023-06-26T13:21:09;24.90;50.70
74520;DHT22;63002;48.134;-1.948;2023-06-26T13:23:35;24.90;50.80
74520;DHT22;63002;48.134;-1.948;2023-06-26T13:26:01;24.90;50.80
74520;DHT22;63002;48.134;-1.948;2023-06-26T13:28:27;24.90;50.80
74520;DHT22;63002;48.134;-1.948;2023-06-26T13:30:54;24.90;50.80
74520;DHT22;63002;48.134;-1.948;2023-06-26T13:33:20;24.90;50.80
74520;DHT22;63002;48.134;-1.948;2023-06-26T13:35:46;24.90;50.80
74520;DHT22;63002;48.134;-1.948;2023-06-26T13:38:12;24.90;50.80
74520;DHT22;63002;48.134;-1.948;2023-06-26T13:40:38;24.90;50.80
74520;DHT22;63002;48.134;-1.948;2023-06-26T13:43:04;24.90;50.80
74520;DHT22;63002;48.134;-1.948;2023-06-26T13:45:29;24.90;50.80
74520;DHT22;63002;48.134;-1.948;2023-06-26T13:47:55;24.90;50.80
74520;DHT22;63002;48.134;-1.948;2023-06-26T13:50:21;24.90;50.80
74520;DHT22;63002;48.134;-1.948;2023-06-26T13:52:46;24.90;50.80
74520;DHT22;63002;48.134;-1.948;2023-06-26T13:55:12;24.90;50.80
74520;DHT22;63002;48.134;-1.948;2023-06-26T13:57:38;24.90;50.80
74520;DHT22;63002;48.134;-1.948;2023-06-26T14:00:08;24.90;50.80
74520;DHT22;63002;48.134;-1.948;2023-06-26T14:02:34;24.90;50.90
74520;DHT22;63002;48.134;-1.948;2023-06-26T14:05:00;24.90;50.80
74520;DHT22;63002;48.134;-1.948;2023-06-26T14:07:25;24.90;50.90
74520;DHT22;63002;48.134;-1.948;2023-06-26T14:09:51;24.90;50.90
74520;DHT22;63002;48.134;-1.948;2023-06-26T14:12:17;24.90;50.90
74520;DHT22;63002;48.134;-1.948;2023-06-26T14:14:42;24.90;50.90
74520;DHT22;63002;48.134;-1.948;2023-06-26T14:17:08;24.90;50.90
74520;DHT22;63002;48.134;-1.948;2023-06-26T14:19:35;24.90;50.90
74520;DHT22;63002;48.134;-1.948;2023-06-26T14:22:01;24.90;50.90
74520;DHT22;63002;48.134;-1.948;2023-06-26T14:24:27;24.90;50.90
74520;DHT22;63002;48.134;-1.948;2023-06-26T14:26:53;24.90;51.00
74520;DHT22;63002;48.134;-1.948;2023-06-26T14:29:19;24.90;51.00
74520;DHT22;63002;48.134;-1.948;2023-06-26T14:31:45;24.90;51.00
74520;DHT22;63002;48.134;-1.948;2023-06-26T14:34:11;25.00;51.00
74520;DHT22;63002;48.134;-1.948;2023-06-26T14:36:37;24.90;51.00
74520;DHT22;63002;48.134;-1.948;2023-06-26T14:39:03;25.00;50.90
74520;DHT22;63002;48.134;-1.948;2023-06-26T14:41:30;25.00;50.90
74520;DHT22;63002;48.134;-1.948;2023-06-26T14:43:55;25.00;51.00
74520;DHT22;63002;48.134;-1.948;2023-06-26T14:46:21;25.00;50.90
74520;DHT22;63002;48.134;-1.948;2023-06-26T14:48:48;25.00;51.00
74520;DHT22;63002;48.134;-1.948;2023-06-26T14:51:14;25.00;50.90
74520;DHT22;63002;48.134;-1.948;2023-06-26T14:53:39;25.00;50.90
74520;DHT22;63002;48.134;-1.948;2023-06-26T14:56:05;25.00;50.90
74520;DHT22;63002;48.134;-1.948;2023-06-26T14:58:31;25.00;50.90
74520;DHT22;63002;48.134;-1.948;2023-06-26T15:00:56;25.00;51.00
74520;DHT22;63002;48.134;-1.948;2023-06-26T15:03:23;25.00;51.00
74520;DHT22;63002;48.134;-1.948;2023-06-26T15:05:48;25.00;51.00
74520;DHT22;63002;48.134;-1.948;2023-06-26T15:08:15;25.00;50.90
74520;DHT22;63002;48.134;-1.948;2023-06-26T15:10:41;25.10;50.90
74520;DHT22;63002;48.134;-1.948;2023-06-26T15:13:06;25.10;50.80
74520;DHT22;63002;48.134;-1.948;2023-06-26T15:15:33;25.10;50.80
74520;DHT22;63002;48.134;-1.948;2023-06-26T15:17:59;25.10;50.80
74520;DHT22;63002;48.134;-1.948;2023-06-26T15:20:25;25.10;50.80
74520;DHT22;63002;48.134;-1.948;2023-06-26T15:22:51;25.10;50.80
74520;DHT22;63002;48.134;-1.948;2023-06-26T15:25:16;25.10;50.80
74520;DHT22;63002;48.134;-1.948;2023-06-26T15:27:42;25.10;50.90
74520;DHT22;63002;48.134;-1.948;2023-06-26T15:30:08;25.10;50.90
74520;DHT22;63002;48.134;-1.948;2023-06-26T15:32:34;25.10;50.90
74520;DHT22;63002;48.134;-1.948;2023-06-26T15:35:00;25.10;50.90
74520;DHT22;63002;48.134;-1.948;2023-06-26T15:37:26;25.10;50.90
74520;DHT22;63002;48.134;-1.948;2023-06-26T15:39:51;25.10;50.90
74520;DHT22;63002;48.134;-1.948;2023-06-26T15:42:17;25.10;50.90
74520;DHT22;63002;48.134;-1.948;2023-06-26T15:44:43;25.10;50.90
74520;DHT22;63002;48.134;-1.948;2023-06-26T15:47:08;25.10;50.90
74520;DHT22;63002;48.134;-1.948;2023-06-26T15:49:34;25.10;50.90
74520;DHT22;63002;48.134;-1.948;2023-06-26T15:52:00;25.10;50.90
74520;DHT22;63002;48.134;-1.948;2023-06-26T15:54:25;25.10;50.90
74520;DHT22;63002;48.134;-1.948;2023-06-26T15:56:52;25.10;50.90
74520;DHT22;63002;48.134;-1.948;2023-06-26T15:59:18;25.10;50.90
74520;DHT22;63002;48.134;-1.948;2023-06-26T16:01:44;25.10;50.90
74520;DHT22;63002;48.134;-1.948;2023-06-26T16:04:12;25.10;51.00
74520;DHT22;63002;48.134;-1.948;2023-06-26T16:06:38;25.10;51.00
74520;DHT22;63002;48.134;-1.948;2023-06-26T16:09:05;25.10;51.00
74520;DHT22;63002;48.134;-1.948;2023-06-26T16:11:31;25.10;51.00
74520;DHT22;63002;48.134;-1.948;2023-06-26T16:13:56;25.10;51.00
74520;DHT22;63002;48.134;-1.948;2023-06-26T16:16:23;25.10;51.00
74520;DHT22;63002;48.134;-1.948;2023-06-26T16:18:49;25.10;51.00
74520;DHT22;63002;48.134;-1.948;2023-06-26T16:21:15;25.10;50.90
74520;DHT22;63002;48.134;-1.948;2023-06-26T16:23:41;25.10;51.00
74520;DHT22;63002;48.134;-1.948;2023-06-26T16:26:07;25.10;51.00
74520;DHT22;63002;48.134;-1.948;2023-06-26T16:28:32;25.10;51.00
74520;DHT22;63002;48.134;-1.948;2023-06-26T16:30:58;25.10;51.00
74520;DHT22;63002;48.134;-1.948;2023-06-26T16:33:24;25.20;51.00
74520;DHT22;63002;48.134;-1.948;2023-06-26T16:35:50;25.10;51.00
74520;DHT22;63002;48.134;-1.948;2023-06-26T16:38:15;25.20;50.90
74520;DHT22;63002;48.134;-1.948;2023-06-26T16:40:41;25.20;51.00
74520;DHT22;63002;48.134;-1.948;2023-06-26T16:43:07;25.20;51.00
74520;DHT22;63002;48.134;-1.948;2023-06-26T16:45:32;25.20;51.00
74520;DHT22;63002;48.134;-1.948;2023-06-26T16:47:58;25.20;51.00
74520;DHT22;63002;48.134;-1.948;2023-06-26T16:50:24;25.10;50.80
74520;DHT22;63002;48.134;-1.948;2023-06-26T16:52:49;25.20;49.40
74520;DHT22;63002;48.134;-1.948;2023-06-26T16:55:16;25.20;49.60
74520;DHT22;63002;48.134;-1.948;2023-06-26T16:57:41;25.20;49.60
74520;DHT22;63002;48.134;-1.948;2023-06-26T17:00:08;25.20;49.70
74520;DHT22;63002;48.134;-1.948;2023-06-26T17:02:34;25.20;49.30
74520;DHT22;63002;48.134;-1.948;2023-06-26T17:05:00;25.20;48.90
74520;DHT22;63002;48.134;-1.948;2023-06-26T17:07:26;25.20;49.20
74520;DHT22;63002;48.134;-1.948;2023-06-26T17:09:52;25.20;48.80
74520;DHT22;63002;48.134;-1.948;2023-06-26T17:12:17;25.20;48.90
74520;DHT22;63002;48.134;-1.948;2023-06-26T17:14:43;25.10;49.20
74520;DHT22;63002;48.134;-1.948;2023-06-26T17:17:09;25.20;49.30
74520;DHT22;63002;48.134;-1.948;2023-06-26T17:19:35;25.20;49.60
74520;DHT22;63002;48.134;-1.948;2023-06-26T17:22:02;25.10;49.40
74520;DHT22;63002;48.134;-1.948;2023-06-26T17:24:28;25.10;49.80
74520;DHT22;63002;48.134;-1.948;2023-06-26T17:26:54;25.20;49.60
74520;DHT22;63002;48.134;-1.948;2023-06-26T17:29:19;25.20;49.00
74520;DHT22;63002;48.134;-1.948;2023-06-26T17:31:45;25.20;48.60
74520;DHT22;63002;48.134;-1.948;2023-06-26T17:34:11;25.10;48.50
74520;DHT22;63002;48.134;-1.948;2023-06-26T17:36:36;25.10;47.50
74520;DHT22;63002;48.134;-1.948;2023-06-26T17:39:03;25.10;47.60
74520;DHT22;63002;48.134;-1.948;2023-06-26T17:41:30;25.10;47.00
74520;DHT22;63002;48.134;-1.948;2023-06-26T17:43:56;25.00;46.90
74520;DHT22;63002;48.134;-1.948;2023-06-26T17:46:22;25.10;47.20
74520;DHT22;63002;48.134;-1.948;2023-06-26T17:48:48;25.10;46.60
74520;DHT22;63002;48.134;-1.948;2023-06-26T17:51:13;25.10;46.40
74520;DHT22;63002;48.134;-1.948;2023-06-26T17:53:39;25.10;46.20
74520;DHT22;63002;48.134;-1.948;2023-06-26T17:56:05;25.00;46.50
74520;DHT22;63002;48.134;-1.948;2023-06-26T17:58:30;25.00;46.70
74520;DHT22;63002;48.134;-1.948;2023-06-26T18:00:56;24.90;46.50
74520;DHT22;63002;48.134;-1.948;2023-06-26T18:03:22;24.80;46.50
74520;DHT22;63002;48.134;-1.948;2023-06-26T18:05:48;24.80;47.20
74520;DHT22;63002;48.134;-1.948;2023-06-26T18:08:13;24.90;46.40
74520;DHT22;63002;48.134;-1.948;2023-06-26T18:10:39;24.90;47.00
74520;DHT22;63002;48.134;-1.948;2023-06-26T18:13:05;25.00;47.10
74520;DHT22;63002;48.134;-1.948;2023-06-26T18:15:31;25.00;47.40
74520;DHT22;63002;48.134;-1.948;2023-06-26T18:17:56;25.10;47.30
74520;DHT22;63002;48.134;-1.948;2023-06-26T18:20:22;25.10;47.50
74520;DHT22;63002;48.134;-1.948;2023-06-26T18:22:48;25.00;47.50
74520;DHT22;63002;48.134;-1.948;2023-06-26T18:25:15;25.10;47.60
74520;DHT22;63002;48.134;-1.948;2023-06-26T18:27:41;25.10;47.80
74520;DHT22;63002;48.134;-1.948;2023-06-26T18:30:07;25.00;47.00
74520;DHT22;63002;48.134;-1.948;2023-06-26T18:32:33;24.90;46.50
74520;DHT22;63002;48.134;-1.948;2023-06-26T18:34:59;24.80;46.00
74520;DHT22;63002;48.134;-1.948;2023-06-26T18:37:24;24.80;46.80
74520;DHT22;63002;48.134;-1.948;2023-06-26T18:39:50;24.90;47.10
74520;DHT22;63002;48.134;-1.948;2023-06-26T18:42:16;24.90;47.50
74520;DHT22;63002;48.134;-1.948;2023-06-26T18:44:41;25.00;47.70
74520;DHT22;63002;48.134;-1.948;2023-06-26T18:47:07;25.00;47.90
74520;DHT22;63002;48.134;-1.948;2023-06-26T18:49:33;25.00;47.70
74520;DHT22;63002;48.134;-1.948;2023-06-26T18:51:59;25.10;47.70
74520;DHT22;63002;48.134;-1.948;2023-06-26T18:54:24;25.10;47.80
74520;DHT22;63002;48.134;-1.948;2023-06-26T18:56:50;25.20;47.90
74520;DHT22;63002;48.134;-1.948;2023-06-26T18:59:16;25.20;48.00
74520;DHT22;63002;48.134;-1.948;2023-06-26T19:01:42;25.20;48.00
74520;DHT22;63002;48.134;-1.948;2023-06-26T19:04:09;25.20;48.00
74520;DHT22;63002;48.134;-1.948;2023-06-26T19:06:35;25.20;48.00
74520;DHT22;63002;48.134;-1.948;2023-06-26T19:09:00;25.30;48.10
74520;DHT22;63002;48.134;-1.948;2023-06-26T19:11:26;25.30;48.10
74520;DHT22;63002;48.134;-1.948;2023-06-26T19:13:52;25.30;48.30
74520;DHT22;63002;48.134;-1.948;2023-06-26T19:16:17;25.30;48.40
74520;DHT22;63002;48.134;-1.948;2023-06-26T19:18:43;25.20;48.50
74520;DHT22;63002;48.134;-1.948;2023-06-26T19:21:09;25.20;48.50
74520;DHT22;63002;48.134;-1.948;2023-06-26T19:23:36;25.20;48.50
74520;DHT22;63002;48.134;-1.948;2023-06-26T19:26:01;25.20;48.50
74520;DHT22;63002;48.134;-1.948;2023-06-26T19:28:27;25.20;48.40
74520;DHT22;63002;48.134;-1.948;2023-06-26T19:30:53;25.10;48.80
74520;DHT22;63002;48.134;-1.948;2023-06-26T19:33:19;25.10;48.80
74520;DHT22;63002;48.134;-1.948;2023-06-26T19:35:45;25.20;48.70
74520;DHT22;63002;48.134;-1.948;2023-06-26T19:38:10;25.10;48.40
74520;DHT22;63002;48.134;-1.948;2023-06-26T19:40:36;25.00;48.80
74520;DHT22;63002;48.134;-1.948;2023-06-26T19:43:03;25.00;49.00
74520;DHT22;63002;48.134;-1.948;2023-06-26T19:45:29;25.00;49.00
74520;DHT22;63002;48.134;-1.948;2023-06-26T19:47:55;25.00;49.10
74520;DHT22;63002;48.134;-1.948;2023-06-26T19:50:21;24.90;49.30
74520;DHT22;63002;48.134;-1.948;2023-06-26T19:52:48;24.90;49.40
74520;DHT22;63002;48.134;-1.948;2023-06-26T19:55:13;24.90;49.70
74520;DHT22;63002;48.134;-1.948;2023-06-26T19:57:42;25.00;49.20
74520;DHT22;63002;48.134;-1.948;2023-06-26T20:00:08;25.00;48.90
74520;DHT22;63002;48.134;-1.948;2023-06-26T20:02:34;25.00;49.00
74520;DHT22;63002;48.134;-1.948;2023-06-26T20:05:01;24.90;48.80
74520;DHT22;63002;48.134;-1.948;2023-06-26T20:07:26;25.00;48.50
74520;DHT22;63002;48.134;-1.948;2023-06-26T20:09:52;24.90;48.30
74520;DHT22;63002;48.134;-1.948;2023-06-26T20:12:18;25.00;48.20
74520;DHT22;63002;48.134;-1.948;2023-06-26T20:14:44;24.90;48.10
74520;DHT22;63002;48.134;-1.948;2023-06-26T20:17:10;25.00;48.10
74520;DHT22;63002;48.134;-1.948;2023-06-26T20:19:37;24.90;48.10
74520;DHT22;63002;48.134;-1.948;2023-06-26T20:22:04;24.90;48.00
74520;DHT22;63002;48.134;-1.948;2023-06-26T20:24:30;24.90;48.00
74520;DHT22;63002;48.134;-1.948;2023-06-26T20:27:00;24.90;47.90
74520;DHT22;63002;48.134;-1.948;2023-06-26T20:29:25;25.00;48.00